sensor_id;sensor_type;location;lat;lon;timestamp;pressure;altitude;pressure_sealevel;temperature;humidity
9717;BME280;4897;43.570;27.832;2023-09-19T00:01:39;99476.50;;;13.72;100.00
9717;BME280;4897;43.570;27.832;2023-09-19T00:04:08;99480.31;;;13.69;100.00
9717;BME280;4897;43.570;27.832;2023-09-19T00:06:38;99481.19;;;13.60;100.00
9717;BME280;4897;43.570;27.832;2023-09-19T00:09:05;99449.50;;;13.44;100.00
9717;BME280;4897;43.570;27.832;2023-09-19T00:11:36;99475.53;;;13.53;100.00
9717;BME280;4897;43.570;27.832;2023-09-19T00:14:03;99476.09;;;13.47;100.00
9717;BME280;4897;43.570;27.832;2023-09-19T00:16:34;99479.75;;;13.46;100.00
9717;BME280;4897;43.570;27.832;2023-09-19T00:19:02;99477.06;;;13.56;100.00
9717;BME280;4897;43.570;27.832;2023-09-19T00:21:32;99475.81;;;13.50;100.00
9717;BME280;4897;43.570;27.832;2023-09-19T00:23:59;99474.09;;;13.40;100.00
9717;BME280;4897;43.570;27.832;2023-09-19T00:26:26;99464.91;;;13.42;100.00
9717;BME280;4897;43.570;27.832;2023-09-19T00:28:56;99452.88;;;13.27;100.00
9717;BME280;4897;43.570;27.832;2023-09-19T00:31:33;99462.75;;;13.27;100.00
9717;BME280;4897;43.570;27.832;2023-09-19T00:34:03;99467.31;;;13.26;100.00
9717;BME280;4897;43.570;27.832;2023-09-19T00:36:37;99463.47;;;13.19;100.00
9717;BME280;4897;43.570;27.832;2023-09-19T00:39:05;99462.50;;;13.20;100.00
9717;BME280;4897;43.570;27.832;2023-09-19T00:41:32;99424.03;;;13.10;100.00
9717;BME280;4897;43.570;27.832;2023-09-19T00:44:01;99463.63;;;13.27;100.00
9717;BME280;4897;43.570;27.832;2023-09-19T00:46:30;99449.47;;;13.16;100.00
9717;BME280;4897;43.570;27.832;2023-09-19T00:48:58;99458.91;;;13.10;100.00
9717;BME280;4897;43.570;27.832;2023-09-19T00:51:25;99458.50;;;13.05;100.00
9717;BME280;4897;43.570;27.832;2023-09-19T00:53:54;99453.84;;;13.07;100.00
9717;BME280;4897;43.570;27.832;2023-09-19T00:56:22;99405.41;;;12.69;100.00
9717;BME280;4897;43.570;27.832;2023-09-19T00:58:49;99445.88;;;12.96;100.00
9717;BME280;4897;43.570;27.832;2023-09-19T01:01:16;99452.81;;;12.89;100.00
9717;BME280;4897;43.570;27.832;2023-09-19T01:03:44;99447.44;;;12.89;100.00
9717;BME280;4897;43.570;27.832;2023-09-19T01:06:11;99435.69;;;12.80;100.00
9717;BME280;4897;43.570;27.832;2023-09-19T01:08:38;99450.13;;;12.99;100.00
9717;BME280;4897;43.570;27.832;2023-09-19T01:11:13;99454.50;;;13.00;100.00
9717;BME280;4897;43.570;27.832;2023-09-19T01:13:54;99442.47;;;12.94;100.00
9717;BME280;4897;43.570;27.832;2023-09-19T01:16:32;99455.75;;;12.96;100.00
9717;BME280;4897;43.570;27.832;2023-09-19T01:19:20;99454.06;;;12.95;100.00
9717;BME280;4897;43.570;27.832;2023-09-19T01:21:55;99456.91;;;12.93;100.00
9717;BME280;4897;43.570;27.832;2023-09-19T01:24:55;99464.50;;;12.88;100.00
9717;BME280;4897;43.570;27.832;2023-09-19T01:27:49;99450.53;;;12.94;100.00
9717;BME280;4897;43.570;27.832;2023-09-19T01:30:25;99480.00;;;13.05;100.00
9717;BME280;4897;43.570;27.832;2023-09-19T01:32:54;99459.94;;;13.09;100.00
9717;BME280;4897;43.570;27.832;2023-09-19T01:35:22;99451.44;;;13.04;100.00
9717;BME280;4897;43.570;27.832;2023-09-19T01:37:49;99454.06;;;12.95;100.00
9717;BME280;4897;43.570;27.832;2023-09-19T01:40:18;99441.16;;;12.79;100.00
9717;BME280;4897;43.570;27.832;2023-09-19T01:42:50;99449.94;;;12.81;100.00
9717;BME280;4897;43.570;27.832;2023-09-19T01:45:27;99450.94;;;12.80;100.00
9717;BME280;4897;43.570;27.832;2023-09-19T01:48:05;99464.06;;;12.83;100.00
9717;BME280;4897;43.570;27.832;2023-09-19T01:50:43;99433.59;;;12.54;100.00
9717;BME280;4897;43.570;27.832;2023-09-19T01:53:15;99448.09;;;12.72;100.00
9717;BME280;4897;43.570;27.832;2023-09-19T01:55:49;99451.13;;;12.58;100.00
9717;BME280;4897;43.570;27.832;2023-09-19T01:58:20;99443.19;;;12.47;100.00
9717;BME280;4897;43.570;27.832;2023-09-19T02:00:50;99462.13;;;12.55;100.00
9717;BME280;4897;43.570;27.832;2023-09-19T02:03:20;99459.28;;;12.47;100.00
9717;BME280;4897;43.570;27.832;2023-09-19T02:05:49;99456.59;;;12.47;100.00
9717;BME280;4897;43.570;27.832;2023-09-19T02:08:17;99460.78;;;12.40;100.00
9717;BME280;4897;43.570;27.832;2023-09-19T02:10:44;99463.88;;;12.35;100.00
9717;BME280;4897;43.570;27.832;2023-09-19T02:13:15;99448.91;;;12.33;100.00
9717;BME280;4897;43.570;27.832;2023-09-19T02:15:43;99458.81;;;12.42;100.00
9717;BME280;4897;43.570;27.832;2023-09-19T02:18:12;99456.13;;;12.42;100.00
9717;BME280;4897;43.570;27.832;2023-09-19T02:20:39;99447.56;;;12.48;100.00
9717;BME280;4897;43.570;27.832;2023-09-19T02:23:07;99436.81;;;12.48;100.00
9717;BME280;4897;43.570;27.832;2023-09-19T02:25:34;99448.81;;;12.44;100.00
9717;BME280;4897;43.570;27.832;2023-09-19T02:28:04;99428.13;;;12.25;100.00
9717;BME280;4897;43.570;27.832;2023-09-19T02:30:31;99460.22;;;12.36;100.00
9717;BME280;4897;43.570;27.832;2023-09-19T02:32:58;99436.16;;;12.25;100.00
9717;BME280;4897;43.570;27.832;2023-09-19T02:35:28;99453.75;;;12.39;100.00
9717;BME280;4897;43.570;27.832;2023-09-19T02:37:58;99446.94;;;12.35;100.00
9717;BME280;4897;43.570;27.832;2023-09-19T02:40:25;99437.72;;;12.28;100.00
9717;BME280;4897;43.570;27.832;2023-09-19T02:42:54;99438.47;;;12.39;100.00
9717;BME280;4897;43.570;27.832;2023-09-19T02:45:24;99444.13;;;12.36;100.00
9717;BME280;4897;43.570;27.832;2023-09-19T02:47:51;99446.09;;;12.34;100.00
9717;BME280;4897;43.570;27.832;2023-09-19T02:50:18;99439.88;;;12.34;100.00
9717;BME280;4897;43.570;27.832;2023-09-19T02:52:47;99433.34;;;12.27;100.00
9717;BME280;4897;43.570;27.832;2023-09-19T02:55:15;99448.31;;;12.29;100.00
9717;BME280;4897;43.570;27.832;2023-09-19T02:57:47;99443.81;;;12.30;100.00
9717;BME280;4897;43.570;27.832;2023-09-19T03:00:15;99441.59;;;12.35;100.00
9717;BME280;4897;43.570;27.832;2023-09-19T03:02:46;99444.34;;;12.24;100.00
9717;BME280;4897;43.570;27.832;2023-09-19T03:05:13;99435.84;;;12.19;100.00
9717;BME280;4897;43.570;27.832;2023-09-19T03:07:41;99432.72;;;12.14;100.00
9717;BME280;4897;43.570;27.832;2023-09-19T03:10:10;99415.75;;;12.03;100.00
9717;BME280;4897;43.570;27.832;2023-09-19T03:12:37;99418.22;;;11.95;100.00
9717;BME280;4897;43.570;27.832;2023-09-19T03:15:06;99440.31;;;12.09;100.00
9717;BME280;4897;43.570;27.832;2023-09-19T03:17:34;99436.06;;;12.06;100.00
9717;BME280;4897;43.570;27.832;2023-09-19T03:20:01;99412.66;;;12.08;100.00
9717;BME280;4897;43.570;27.832;2023-09-19T03:22:29;99423.69;;;12.15;100.00
9717;BME280;4897;43.570;27.832;2023-09-19T03:24:56;99429.22;;;12.23;100.00
9717;BME280;4897;43.570;27.832;2023-09-19T03:27:25;99435.97;;;12.17;100.00
9717;BME280;4897;43.570;27.832;2023-09-19T03:29:52;99433.50;;;12.04;100.00
9717;BME280;4897;43.570;27.832;2023-09-19T03:32:19;99431.38;;;11.98;100.00
9717;BME280;4897;43.570;27.832;2023-09-19T03:34:46;99431.56;;;12.07;100.00
9717;BME280;4897;43.570;27.832;2023-09-19T03:37:14;99429.41;;;12.00;100.00
9717;BME280;4897;43.570;27.832;2023-09-19T03:39:41;99412.97;;;11.84;100.00
9717;BME280;4897;43.570;27.832;2023-09-19T03:42:08;99415.88;;;11.81;100.00
9717;BME280;4897;43.570;27.832;2023-09-19T03:44:36;99423.22;;;11.79;100.00
9717;BME280;4897;43.570;27.832;2023-09-19T03:47:04;99433.06;;;11.99;100.00
9717;BME280;4897;43.570;27.832;2023-09-19T03:49:31;99428.13;;;11.95;100.00
9717;BME280;4897;43.570;27.832;2023-09-19T03:51:57;99411.59;;;11.69;100.00
9717;BME280;4897;43.570;27.832;2023-09-19T03:54:24;99415.69;;;11.73;100.00
9717;BME280;4897;43.570;27.832;2023-09-19T03:56:51;99420.19;;;11.73;100.00
9717;BME280;4897;43.570;27.832;2023-09-19T03:59:18;99419.22;;;11.74;100.00
9717;BME280;4897;43.570;27.832;2023-09-19T04:01:46;99423.72;;;11.73;100.00
9717;BME280;4897;43.570;27.832;2023-09-19T04:04:13;99422.81;;;11.84;100.00
9717;BME280;4897;43.570;27.832;2023-09-19T04:06:40;99412.78;;;11.76;100.00
9717;BME280;4897;43.570;27.832;2023-09-19T04:09:07;99431.03;;;11.92;100.00
9717;BME280;4897;43.570;27.832;2023-09-19T04:11:34;99428.72;;;12.08;100.00
9717;BME280;4897;43.570;27.832;2023-09-19T04:14:03;99422.72;;;12.16;100.00
9717;BME280;4897;43.570;27.832;2023-09-19T04:16:30;99423.16;;;12.21;100.00
9717;BME280;4897;43.570;27.832;2023-09-19T04:18:59;99416.00;;;12.31;100.00
9717;BME280;4897;43.570;27.832;2023-09-19T04:21:26;99419.84;;;12.38;100.00
9717;BME280;4897;43.570;27.832;2023-09-19T04:23:55;99427.25;;;12.55;100.00
9717;BME280;4897;43.570;27.832;2023-09-19T04:26:22;99432.78;;;12.63;100.00
9717;BME280;4897;43.570;27.832;2023-09-19T04:28:51;99424.44;;;12.56;100.00
9717;BME280;4897;43.570;27.832;2023-09-19T04:31:17;99426.63;;;12.72;100.00
9717;BME280;4897;43.570;27.832;2023-09-19T04:33:45;99410.69;;;12.80;100.00
9717;BME280;4897;43.570;27.832;2023-09-19T04:36:14;99398.66;;;12.84;100.00
9717;BME280;4897;43.570;27.832;2023-09-19T04:38:40;99404.31;;;12.81;100.00
9717;BME280;4897;43.570;27.832;2023-09-19T04:41:07;99394.97;;;12.85;100.00
9717;BME280;4897;43.570;27.832;2023-09-19T04:43:34;99391.06;;;12.89;100.00
9717;BME280;4897;43.570;27.832;2023-09-19T04:46:01;99359.38;;;12.64;100.00
9717;BME280;4897;43.570;27.832;2023-09-19T04:48:28;99370.16;;;13.02;100.00
9717;BME280;4897;43.570;27.832;2023-09-19T04:50:55;99394.09;;;13.24;100.00
9717;BME280;4897;43.570;27.832;2023-09-19T04:53:23;99392.97;;;13.36;100.00
9717;BME280;4897;43.570;27.832;2023-09-19T04:55:51;99375.44;;;13.32;100.00
9717;BME280;4897;43.570;27.832;2023-09-19T04:58:21;99398.31;;;13.55;100.00
9717;BME280;4897;43.570;27.832;2023-09-19T05:00:48;99376.94;;;13.63;100.00
9717;BME280;4897;43.570;27.832;2023-09-19T05:03:16;99396.56;;;13.93;100.00
9717;BME280;4897;43.570;27.832;2023-09-19T05:05:46;99395.66;;;14.02;100.00
9717;BME280;4897;43.570;27.832;2023-09-19T05:08:13;99322.50;;;13.61;100.00
9717;BME280;4897;43.570;27.832;2023-09-19T05:10:42;99391.13;;;14.12;100.00
9717;BME280;4897;43.570;27.832;2023-09-19T05:13:09;99356.34;;;14.01;100.00
9717;BME280;4897;43.570;27.832;2023-09-19T05:15:37;99397.88;;;14.35;100.00
9717;BME280;4897;43.570;27.832;2023-09-19T05:18:04;99384.53;;;14.43;100.00
9717;BME280;4897;43.570;27.832;2023-09-19T05:20:32;99378.53;;;14.49;100.00
9717;BME280;4897;43.570;27.832;2023-09-19T05:23:02;99397.66;;;14.73;100.00
9717;BME280;4897;43.570;27.832;2023-09-19T05:25:34;99380.38;;;14.76;100.00
9717;BME280;4897;43.570;27.832;2023-09-19T05:28:08;99403.63;;;14.94;100.00
9717;BME280;4897;43.570;27.832;2023-09-19T05:30:40;99366.69;;;14.87;100.00
9717;BME280;4897;43.570;27.832;2023-09-19T05:33:08;99379.88;;;15.07;100.00
9717;BME280;4897;43.570;27.832;2023-09-19T05:35:36;99364.47;;;15.17;100.00
9717;BME280;4897;43.570;27.832;2023-09-19T05:38:05;99389.88;;;15.50;100.00
9717;BME280;4897;43.570;27.832;2023-09-19T05:40:34;99372.41;;;15.54;100.00
9717;BME280;4897;43.570;27.832;2023-09-19T05:43:01;99335.28;;;15.48;100.00
9717;BME280;4897;43.570;27.832;2023-09-19T05:45:32;99391.41;;;15.96;100.00
9717;BME280;4897;43.570;27.832;2023-09-19T05:48:07;99396.25;;;16.10;100.00
9717;BME280;4897;43.570;27.832;2023-09-19T05:50:34;99383.81;;;16.17;100.00
9717;BME280;4897;43.570;27.832;2023-09-19T05:53:01;99390.00;;;16.35;100.00
9717;BME280;4897;43.570;27.832;2023-09-19T05:55:29;99397.16;;;16.52;100.00
9717;BME280;4897;43.570;27.832;2023-09-19T05:57:56;99364.78;;;16.52;100.00
9717;BME280;4897;43.570;27.832;2023-09-19T06:00:25;99399.06;;;17.02;100.00
9717;BME280;4897;43.570;27.832;2023-09-19T06:02:55;99386.72;;;17.07;100.00
9717;BME280;4897;43.570;27.832;2023-09-19T06:05:23;99402.47;;;17.36;100.00
9717;BME280;4897;43.570;27.832;2023-09-19T06:07:52;99374.09;;;17.40;100.00
9717;BME280;4897;43.570;27.832;2023-09-19T06:10:19;99386.31;;;17.68;100.00
9717;BME280;4897;43.570;27.832;2023-09-19T06:12:48;99407.91;;;18.00;100.00
9717;BME280;4897;43.570;27.832;2023-09-19T06:15:15;99409.78;;;18.16;100.00
9717;BME280;4897;43.570;27.832;2023-09-19T06:17:46;99405.53;;;18.21;100.00
9717;BME280;4897;43.570;27.832;2023-09-19T06:20:15;99380.03;;;18.00;100.00
9717;BME280;4897;43.570;27.832;2023-09-19T06:22:43;99394.81;;;18.36;100.00
9717;BME280;4897;43.570;27.832;2023-09-19T06:25:10;99390.41;;;18.51;100.00
9717;BME280;4897;43.570;27.832;2023-09-19T06:27:38;99381.22;;;18.68;100.00
9717;BME280;4897;43.570;27.832;2023-09-19T06:30:07;99398.84;;;18.95;100.00
9717;BME280;4897;43.570;27.832;2023-09-19T06:32:35;99384.25;;;19.04;100.00
9717;BME280;4897;43.570;27.832;2023-09-19T06:35:05;99402.53;;;19.33;100.00
9717;BME280;4897;43.570;27.832;2023-09-19T06:37:35;99391.38;;;19.58;100.00
9717;BME280;4897;43.570;27.832;2023-09-19T06:40:08;99386.03;;;19.87;100.00
9717;BME280;4897;43.570;27.832;2023-09-19T06:42:39;99394.16;;;20.25;100.00
9717;BME280;4897;43.570;27.832;2023-09-19T06:45:07;99382.28;;;20.40;100.00
9717;BME280;4897;43.570;27.832;2023-09-19T06:47:37;99386.41;;;20.51;100.00
9717;BME280;4897;43.570;27.832;2023-09-19T06:50:04;99379.84;;;20.75;100.00
9717;BME280;4897;43.570;27.832;2023-09-19T06:52:36;99379.03;;;20.95;100.00
9717;BME280;4897;43.570;27.832;2023-09-19T06:55:03;99366.53;;;21.15;100.00
9717;BME280;4897;43.570;27.832;2023-09-19T06:57:31;99383.00;;;21.28;100.00
9717;BME280;4897;43.570;27.832;2023-09-19T06:59:58;99379.91;;;21.31;100.00
9717;BME280;4897;43.570;27.832;2023-09-19T07:02:27;99367.34;;;21.52;100.00
9717;BME280;4897;43.570;27.832;2023-09-19T07:04:53;99327.59;;;21.51;100.00
9717;BME280;4897;43.570;27.832;2023-09-19T07:07:20;99386.16;;;21.89;100.00
9717;BME280;4897;43.570;27.832;2023-09-19T07:09:48;99383.03;;;21.92;100.00
9717;BME280;4897;43.570;27.832;2023-09-19T07:12:16;99389.25;;;22.07;100.00
9717;BME280;4897;43.570;27.832;2023-09-19T07:14:45;99379.06;;;22.22;100.00
9717;BME280;4897;43.570;27.832;2023-09-19T07:17:12;99381.91;;;22.35;100.00
9717;BME280;4897;43.570;27.832;2023-09-19T07:19:44;99381.69;;;22.37;100.00
9717;BME280;4897;43.570;27.832;2023-09-19T07:22:11;99379.59;;;22.66;100.00
9717;BME280;4897;43.570;27.832;2023-09-19T07:24:38;99376.25;;;22.71;100.00
9717;BME280;4897;43.570;27.832;2023-09-19T07:27:07;99369.56;;;22.73;100.00
9717;BME280;4897;43.570;27.832;2023-09-19T07:29:34;99373.97;;;22.74;100.00
9717;BME280;4897;43.570;27.832;2023-09-19T07:32:01;99380.75;;;22.91;100.00
9717;BME280;4897;43.570;27.832;2023-09-19T07:34:28;99340.00;;;22.77;100.00
9717;BME280;4897;43.570;27.832;2023-09-19T07:36:55;99368.44;;;23.02;100.00
9717;BME280;4897;43.570;27.832;2023-09-19T07:39:22;99373.31;;;23.13;100.00
9717;BME280;4897;43.570;27.832;2023-09-19T07:41:49;99361.97;;;23.23;100.00
9717;BME280;4897;43.570;27.832;2023-09-19T07:44:17;99377.44;;;23.63;100.00
9717;BME280;4897;43.570;27.832;2023-09-19T07:46:45;99351.59;;;23.78;100.00
9717;BME280;4897;43.570;27.832;2023-09-19T07:49:12;99370.28;;;23.62;100.00
9717;BME280;4897;43.570;27.832;2023-09-19T07:51:43;99366.50;;;23.63;100.00
9717;BME280;4897;43.570;27.832;2023-09-19T07:54:12;99365.66;;;23.95;100.00
9717;BME280;4897;43.570;27.832;2023-09-19T07:56:40;99364.44;;;24.24;100.00
9717;BME280;4897;43.570;27.832;2023-09-19T07:59:07;99341.25;;;24.52;100.00
9717;BME280;4897;43.570;27.832;2023-09-19T08:01:36;99344.13;;;24.71;100.00
9717;BME280;4897;43.570;27.832;2023-09-19T08:04:05;99340.41;;;24.39;100.00
9717;BME280;4897;43.570;27.832;2023-09-19T08:06:32;99343.84;;;24.15;100.00
9717;BME280;4897;43.570;27.832;2023-09-19T08:08:59;99345.50;;;24.29;100.00
9717;BME280;4897;43.570;27.832;2023-09-19T08:11:26;99343.16;;;24.32;100.00
9717;BME280;4897;43.570;27.832;2023-09-19T08:13:56;99335.53;;;24.74;100.00
9717;BME280;4897;43.570;27.832;2023-09-19T08:16:23;99336.16;;;26.86;100.00
9717;BME280;4897;43.570;27.832;2023-09-19T08:18:52;99279.47;;;29.06;67.87
9717;BME280;4897;43.570;27.832;2023-09-19T08:21:20;99328.34;;;28.25;68.80
9717;BME280;4897;43.570;27.832;2023-09-19T08:23:47;99338.03;;;27.33;82.36
9717;BME280;4897;43.570;27.832;2023-09-19T08:26:14;99327.84;;;27.93;83.85
9717;BME280;4897;43.570;27.832;2023-09-19T08:28:43;99297.25;;;31.25;57.32
9717;BME280;4897;43.570;27.832;2023-09-19T08:31:10;99319.72;;;33.17;48.64
9717;BME280;4897;43.570;27.832;2023-09-19T08:33:40;99308.19;;;34.41;44.51
9717;BME280;4897;43.570;27.832;2023-09-19T08:36:09;99315.41;;;35.70;40.47
9717;BME280;4897;43.570;27.832;2023-09-19T08:38:37;99302.75;;;34.95;41.16
9717;BME280;4897;43.570;27.832;2023-09-19T08:41:06;99302.00;;;35.38;40.02
9717;BME280;4897;43.570;27.832;2023-09-19T08:43:34;99302.34;;;36.09;38.58
9717;BME280;4897;43.570;27.832;2023-09-19T08:46:07;99296.69;;;35.80;38.98
9717;BME280;4897;43.570;27.832;2023-09-19T08:48:39;99298.06;;;35.83;39.38
9717;BME280;4897;43.570;27.832;2023-09-19T08:51:21;99276.69;;;34.76;39.21
9717;BME280;4897;43.570;27.832;2023-09-19T08:53:58;99288.78;;;34.31;40.72
9717;BME280;4897;43.570;27.832;2023-09-19T08:56:31;99273.56;;;35.02;39.03
9717;BME280;4897;43.570;27.832;2023-09-19T08:59:02;99276.09;;;34.89;38.46
9717;BME280;4897;43.570;27.832;2023-09-19T09:01:31;99274.94;;;35.49;37.24
9717;BME280;4897;43.570;27.832;2023-09-19T09:03:58;99262.19;;;37.47;35.35
9717;BME280;4897;43.570;27.832;2023-09-19T09:06:26;99257.72;;;38.15;34.82
9717;BME280;4897;43.570;27.832;2023-09-19T09:08:54;99258.72;;;38.79;33.71
9717;BME280;4897;43.570;27.832;2023-09-19T09:11:22;99248.13;;;39.52;32.12
9717;BME280;4897;43.570;27.832;2023-09-19T09:13:52;99252.09;;;38.02;32.98
9717;BME280;4897;43.570;27.832;2023-09-19T09:16:19;99256.28;;;36.93;34.36
9717;BME280;4897;43.570;27.832;2023-09-19T09:18:46;99248.28;;;36.10;35.30
9717;BME280;4897;43.570;27.832;2023-09-19T09:21:18;99254.16;;;35.75;36.38
9717;BME280;4897;43.570;27.832;2023-09-19T09:23:48;99239.97;;;35.38;36.18
9717;BME280;4897;43.570;27.832;2023-09-19T09:26:17;99259.47;;;35.32;36.36
9717;BME280;4897;43.570;27.832;2023-09-19T09:28:45;99256.00;;;34.38;36.94
9717;BME280;4897;43.570;27.832;2023-09-19T09:31:22;99256.72;;;32.92;38.78
9717;BME280;4897;43.570;27.832;2023-09-19T09:33:53;99266.88;;;32.67;40.30
9717;BME280;4897;43.570;27.832;2023-09-19T09:36:33;99259.00;;;34.46;37.40
9717;BME280;4897;43.570;27.832;2023-09-19T09:39:04;99261.91;;;35.44;36.17
9717;BME280;4897;43.570;27.832;2023-09-19T09:41:41;99260.38;;;35.67;36.13
9717;BME280;4897;43.570;27.832;2023-09-19T09:44:18;99238.06;;;37.19;34.00
9717;BME280;4897;43.570;27.832;2023-09-19T09:46:45;99241.50;;;37.85;33.08
9717;BME280;4897;43.570;27.832;2023-09-19T09:49:47;99238.44;;;37.49;33.17
9717;BME280;4897;43.570;27.832;2023-09-19T09:52:19;99230.03;;;37.68;33.08
9717;BME280;4897;43.570;27.832;2023-09-19T09:55:00;99237.41;;;36.37;34.40
9717;BME280;4897;43.570;27.832;2023-09-19T09:57:31;99244.13;;;37.26;33.88
9717;BME280;4897;43.570;27.832;2023-09-19T10:00:00;99241.16;;;36.75;34.08
9717;BME280;4897;43.570;27.832;2023-09-19T10:02:42;99130.69;;;34.44;35.90
9717;BME280;4897;43.570;27.832;2023-09-19T10:05:13;99235.69;;;35.11;35.91
9717;BME280;4897;43.570;27.832;2023-09-19T10:07:46;99248.34;;;35.32;36.28
9717;BME280;4897;43.570;27.832;2023-09-19T10:10:29;99246.59;;;35.03;36.21
9717;BME280;4897;43.570;27.832;2023-09-19T10:13:05;99227.00;;;36.71;34.96
9717;BME280;4897;43.570;27.832;2023-09-19T10:15:33;99206.41;;;38.11;32.93
9717;BME280;4897;43.570;27.832;2023-09-19T10:18:04;99227.41;;;38.22;32.26
9717;BME280;4897;43.570;27.832;2023-09-19T10:20:34;99211.97;;;37.66;32.69
9717;BME280;4897;43.570;27.832;2023-09-19T10:23:06;99225.03;;;39.47;31.18
9717;BME280;4897;43.570;27.832;2023-09-19T10:25:38;99218.47;;;39.96;30.37
9717;BME280;4897;43.570;27.832;2023-09-19T10:28:06;99207.53;;;39.41;29.93
9717;BME280;4897;43.570;27.832;2023-09-19T10:30:37;99069.06;;;38.45;30.31
9717;BME280;4897;43.570;27.832;2023-09-19T10:33:08;99200.47;;;37.99;31.65
9717;BME280;4897;43.570;27.832;2023-09-19T10:35:38;99216.94;;;36.52;33.25
9717;BME280;4897;43.570;27.832;2023-09-19T10:38:06;99212.41;;;36.08;33.49
9717;BME280;4897;43.570;27.832;2023-09-19T10:40:41;99199.91;;;35.38;35.12
9717;BME280;4897;43.570;27.832;2023-09-19T10:43:12;99214.81;;;35.86;34.77
9717;BME280;4897;43.570;27.832;2023-09-19T10:45:41;99200.69;;;36.59;34.27
9717;BME280;4897;43.570;27.832;2023-09-19T10:48:10;99196.69;;;36.46;33.87
9717;BME280;4897;43.570;27.832;2023-09-19T10:50:44;99196.50;;;36.80;34.04
9717;BME280;4897;43.570;27.832;2023-09-19T10:53:13;99189.66;;;36.25;33.93
9717;BME280;4897;43.570;27.832;2023-09-19T10:55:50;99193.78;;;35.03;34.61
9717;BME280;4897;43.570;27.832;2023-09-19T10:58:27;99022.25;;;32.31;36.60
9717;BME280;4897;43.570;27.832;2023-09-19T11:00:55;99177.28;;;33.28;37.26
9717;BME280;4897;43.570;27.832;2023-09-19T11:03:26;99185.97;;;32.60;38.43
9717;BME280;4897;43.570;27.832;2023-09-19T11:06:07;99179.69;;;32.94;37.80
9717;BME280;4897;43.570;27.832;2023-09-19T11:09:06;99170.34;;;35.14;34.85
9717;BME280;4897;43.570;27.832;2023-09-19T11:11:51;99168.69;;;36.56;32.91
9717;BME280;4897;43.570;27.832;2023-09-19T11:14:43;99166.63;;;35.91;33.66
9717;BME280;4897;43.570;27.832;2023-09-19T11:17:40;99166.09;;;34.78;35.26
9717;BME280;4897;43.570;27.832;2023-09-19T11:20:19;99157.88;;;33.58;37.21
9717;BME280;4897;43.570;27.832;2023-09-19T11:23:21;99170.34;;;31.45;40.99
9717;BME280;4897;43.570;27.832;2023-09-19T11:25:53;99156.66;;;31.65;41.57
9717;BME280;4897;43.570;27.832;2023-09-19T11:28:32;99138.09;;;33.90;38.48
9717;BME280;4897;43.570;27.832;2023-09-19T11:31:00;99136.06;;;34.85;35.91
9717;BME280;4897;43.570;27.832;2023-09-19T11:33:46;99143.16;;;36.02;34.22
9717;BME280;4897;43.570;27.832;2023-09-19T11:36:15;99141.88;;;37.16;32.81
9717;BME280;4897;43.570;27.832;2023-09-19T11:39:00;99139.66;;;37.96;31.98
9717;BME280;4897;43.570;27.832;2023-09-19T11:41:38;99142.81;;;38.85;31.31
9717;BME280;4897;43.570;27.832;2023-09-19T11:44:34;99130.06;;;39.28;31.58
9717;BME280;4897;43.570;27.832;2023-09-19T11:47:05;99126.47;;;40.67;30.18
9717;BME280;4897;43.570;27.832;2023-09-19T11:49:32;99125.34;;;40.86;29.16
9717;BME280;4897;43.570;27.832;2023-09-19T11:52:04;99121.22;;;40.92;29.66
9717;BME280;4897;43.570;27.832;2023-09-19T11:54:34;99114.31;;;41.23;29.06
9717;BME280;4897;43.570;27.832;2023-09-19T11:57:05;99125.94;;;40.48;30.42
9717;BME280;4897;43.570;27.832;2023-09-19T11:59:38;99126.84;;;39.43;33.24
9717;BME280;4897;43.570;27.832;2023-09-19T12:02:06;99106.06;;;36.49;36.50
9717;BME280;4897;43.570;27.832;2023-09-19T12:04:34;99126.53;;;36.39;37.54
9717;BME280;4897;43.570;27.832;2023-09-19T12:07:04;99132.16;;;36.58;37.90
9717;BME280;4897;43.570;27.832;2023-09-19T12:09:32;99124.78;;;37.04;37.53
9717;BME280;4897;43.570;27.832;2023-09-19T12:11:59;99116.88;;;36.93;38.06
9717;BME280;4897;43.570;27.832;2023-09-19T12:14:26;99098.63;;;36.81;38.15
9717;BME280;4897;43.570;27.832;2023-09-19T12:16:55;99100.59;;;37.50;36.87
9717;BME280;4897;43.570;27.832;2023-09-19T12:19:22;99114.31;;;38.96;35.15
9717;BME280;4897;43.570;27.832;2023-09-19T12:21:59;99113.56;;;40.49;32.93
9717;BME280;4897;43.570;27.832;2023-09-19T12:24:30;99090.84;;;40.85;31.80
9717;BME280;4897;43.570;27.832;2023-09-19T12:27:01;99112.91;;;39.52;33.62
9717;BME280;4897;43.570;27.832;2023-09-19T12:29:30;99110.44;;;37.75;36.30
9717;BME280;4897;43.570;27.832;2023-09-19T12:31:59;99106.53;;;36.56;38.52
9717;BME280;4897;43.570;27.832;2023-09-19T12:34:30;99114.84;;;36.37;39.77
9717;BME280;4897;43.570;27.832;2023-09-19T12:37:07;99102.03;;;37.48;39.15
9717;BME280;4897;43.570;27.832;2023-09-19T12:39:44;99114.94;;;35.56;42.29
9717;BME280;4897;43.570;27.832;2023-09-19T12:42:15;99103.69;;;35.95;42.26
9717;BME280;4897;43.570;27.832;2023-09-19T12:44:43;99108.13;;;37.36;39.39
9717;BME280;4897;43.570;27.832;2023-09-19T12:47:13;99080.31;;;37.45;38.00
9717;BME280;4897;43.570;27.832;2023-09-19T12:50:06;99102.41;;;38.42;37.27
9717;BME280;4897;43.570;27.832;2023-09-19T12:52:39;99073.88;;;36.99;38.23
9717;BME280;4897;43.570;27.832;2023-09-19T12:55:06;99098.56;;;36.49;41.22
9717;BME280;4897;43.570;27.832;2023-09-19T12:57:35;99094.94;;;35.54;42.87
9717;BME280;4897;43.570;27.832;2023-09-19T13:00:02;99105.78;;;34.83;45.23
9717;BME280;4897;43.570;27.832;2023-09-19T13:02:32;99092.81;;;35.70;44.12
9717;BME280;4897;43.570;27.832;2023-09-19T13:04:59;99104.66;;;36.09;43.28
9717;BME280;4897;43.570;27.832;2023-09-19T13:07:42;99074.13;;;37.61;39.16
9717;BME280;4897;43.570;27.832;2023-09-19T13:10:10;99099.34;;;38.79;36.41
9717;BME280;4897;43.570;27.832;2023-09-19T13:12:40;99095.03;;;38.73;37.02
9717;BME280;4897;43.570;27.832;2023-09-19T13:15:09;99090.25;;;37.19;40.28
9717;BME280;4897;43.570;27.832;2023-09-19T13:17:47;99095.09;;;36.57;41.47
9717;BME280;4897;43.570;27.832;2023-09-19T13:20:21;99049.59;;;36.01;42.23
9717;BME280;4897;43.570;27.832;2023-09-19T13:22:53;99089.44;;;35.44;44.43